sensor_id;sensor_type;location;lat;lon;timestamp;P1;durP1;ratioP1;P2;durP2;ratioP2
80159;SDS011;69486;59.082;37.928;2023-07-29T00:00:00;1.02;;;0.60;;
80159;SDS011;69486;59.082;37.928;2023-07-29T00:02:25;1.85;;;0.70;;
80159;SDS011;69486;59.082;37.928;2023-07-29T00:04:53;0.60;;;0.55;;
80159;SDS011;69486;59.082;37.928;2023-07-29T00:07:23;1.30;;;0.73;;
80159;SDS011;69486;59.082;37.928;2023-07-29T00:09:49;2.47;;;0.75;;
80159;SDS011;69486;59.082;37.928;2023-07-29T00:12:14;1.25;;;0.73;;
80159;SDS011;69486;59.082;37.928;2023-07-29T00:14:40;3.38;;;0.80;;
80159;SDS011;69486;59.082;37.928;2023-07-29T00:17:05;0.68;;;0.50;;
80159;SDS011;69486;59.082;37.928;2023-07-29T00:19:31;1.83;;;0.63;;
80159;SDS011;69486;59.082;37.928;2023-07-29T00:21:57;0.70;;;0.60;;
80159;SDS011;69486;59.082;37.928;2023-07-29T00:24:23;1.20;;;0.65;;
80159;SDS011;69486;59.082;37.928;2023-07-29T00:26:48;2.38;;;0.70;;
80159;SDS011;69486;59.082;37.928;2023-07-29T00:29:14;2.65;;;0.63;;
80159;SDS011;69486;59.082;37.928;2023-07-29T00:31:40;0.82;;;0.70;;
80159;SDS011;69486;59.082;37.928;2023-07-29T00:34:05;5.25;;;0.70;;
80159;SDS011;69486;59.082;37.928;2023-07-29T00:36:31;0.60;;;0.50;;
80159;SDS011;69486;59.082;37.928;2023-07-29T00:38:57;1.10;;;0.47;;
80159;SDS011;69486;59.082;37.928;2023-07-29T00:41:23;0.95;;;0.68;;
80159;SDS011;69486;59.082;37.928;2023-07-29T00:43:48;0.85;;;0.60;;
80159;SDS011;69486;59.082;37.928;2023-07-29T00:46:14;0.73;;;0.55;;
80159;SDS011;69486;59.082;37.928;2023-07-29T00:48:40;0.93;;;0.63;;
80159;SDS011;69486;59.082;37.928;2023-07-29T00:51:06;2.13;;;0.55;;
80159;SDS011;69486;59.082;37.928;2023-07-29T00:53:32;3.05;;;1.67;;
80159;SDS011;69486;59.082;37.928;2023-07-29T00:55:57;0.93;;;0.70;;
80159;SDS011;69486;59.082;37.928;2023-07-29T00:58:23;1.23;;;0.70;;
80159;SDS011;69486;59.082;37.928;2023-07-29T01:00:49;1.95;;;0.60;;
80159;SDS011;69486;59.082;37.928;2023-07-29T01:03:15;0.65;;;0.60;;
80159;SDS011;69486;59.082;37.928;2023-07-29T01:06:26;0.77;;;0.68;;
80159;SDS011;69486;59.082;37.928;2023-07-29T01:08:38;0.98;;;0.52;;
80159;SDS011;69486;59.082;37.928;2023-07-29T01:11:26;1.30;;;0.60;;
80159;SDS011;69486;59.082;37.928;2023-07-29T01:14:01;0.73;;;0.68;;
80159;SDS011;69486;59.082;37.928;2023-07-29T01:18:55;0.50;;;0.50;;
80159;SDS011;69486;59.082;37.928;2023-07-29T01:21:26;1.95;;;0.60;;
80159;SDS011;69486;59.082;37.928;2023-07-29T01:23:52;0.45;;;0.45;;
80159;SDS011;69486;59.082;37.928;2023-07-29T01:26:18;2.15;;;0.60;;
80159;SDS011;69486;59.082;37.928;2023-07-29T01:28:44;1.27;;;0.77;;
80159;SDS011;69486;59.082;37.928;2023-07-29T01:31:16;4.03;;;0.75;;
80159;SDS011;69486;59.082;37.928;2023-07-29T01:33:48;2.35;;;0.60;;
80159;SDS011;69486;59.082;37.928;2023-07-29T01:36:21;2.60;;;0.80;;
80159;SDS011;69486;59.082;37.928;2023-07-29T01:38:48;1.90;;;0.68;;
80159;SDS011;69486;59.082;37.928;2023-07-29T01:41:15;0.60;;;0.60;;
80159;SDS011;69486;59.082;37.928;2023-07-29T01:43:42;1.95;;;0.80;;
80159;SDS011;69486;59.082;37.928;2023-07-29T01:46:10;1.27;;;0.60;;
80159;SDS011;69486;59.082;37.928;2023-07-29T01:48:37;1.92;;;0.60;;
80159;SDS011;69486;59.082;37.928;2023-07-29T01:51:03;0.77;;;0.60;;
80159;SDS011;69486;59.082;37.928;2023-07-29T01:53:29;1.25;;;0.57;;
80159;SDS011;69486;59.082;37.928;2023-07-29T01:55:55;1.13;;;0.55;;
80159;SDS011;69486;59.082;37.928;2023-07-29T01:58:22;2.78;;;0.60;;
80159;SDS011;69486;59.082;37.928;2023-07-29T02:00:48;0.68;;;0.60;;
80159;SDS011;69486;59.082;37.928;2023-07-29T02:03:14;4.10;;;0.60;;
80159;SDS011;69486;59.082;37.928;2023-07-29T02:05:40;2.05;;;0.65;;
80159;SDS011;69486;59.082;37.928;2023-07-29T02:08:07;1.85;;;0.65;;
80159;SDS011;69486;59.082;37.928;2023-07-29T02:10:33;0.57;;;0.57;;
80159;SDS011;69486;59.082;37.928;2023-07-29T02:12:59;1.40;;;0.52;;
80159;SDS011;69486;59.082;37.928;2023-07-29T02:15:25;0.80;;;0.70;;
80159;SDS011;69486;59.082;37.928;2023-07-29T02:17:51;0.93;;;0.60;;
80159;SDS011;69486;59.082;37.928;2023-07-29T02:20:17;0.95;;;0.70;;
80159;SDS011;69486;59.082;37.928;2023-07-29T02:22:44;1.65;;;0.70;;
80159;SDS011;69486;59.082;37.928;2023-07-29T02:25:10;1.33;;;0.70;;
80159;SDS011;69486;59.082;37.928;2023-07-29T02:27:36;2.75;;;0.75;;
80159;SDS011;69486;59.082;37.928;2023-07-29T02:30:02;3.42;;;0.90;;
80159;SDS011;69486;59.082;37.928;2023-07-29T02:32:28;1.52;;;0.80;;
80159;SDS011;69486;59.082;37.928;2023-07-29T02:34:53;0.50;;;0.50;;
80159;SDS011;69486;59.082;37.928;2023-07-29T02:37:19;0.57;;;0.57;;
80159;SDS011;69486;59.082;37.928;2023-07-29T02:39:46;2.38;;;0.90;;
80159;SDS011;69486;59.082;37.928;2023-07-29T02:42:12;0.73;;;0.70;;
80159;SDS011;69486;59.082;37.928;2023-07-29T02:44:38;1.45;;;0.68;;
80159;SDS011;69486;59.082;37.928;2023-07-29T02:47:04;5.63;;;0.80;;
80159;SDS011;69486;59.082;37.928;2023-07-29T02:49:32;0.60;;;0.50;;
80159;SDS011;69486;59.082;37.928;2023-07-29T02:51:58;1.15;;;0.70;;
80159;SDS011;69486;59.082;37.928;2023-07-29T02:54:23;1.73;;;0.75;;
80159;SDS011;69486;59.082;37.928;2023-07-29T02:56:50;1.52;;;0.80;;
80159;SDS011;69486;59.082;37.928;2023-07-29T02:59:16;1.05;;;0.70;;
80159;SDS011;69486;59.082;37.928;2023-07-29T03:01:42;2.00;;;0.70;;
80159;SDS011;69486;59.082;37.928;2023-07-29T03:04:08;1.35;;;0.80;;
80159;SDS011;69486;59.082;37.928;2023-07-29T03:06:34;0.75;;;0.50;;
80159;SDS011;69486;59.082;37.928;2023-07-29T03:08:59;0.82;;;0.60;;
80159;SDS011;69486;59.082;37.928;2023-07-29T03:11:25;1.75;;;0.85;;
80159;SDS011;69486;59.082;37.928;2023-07-29T03:13:52;1.85;;;0.88;;
80159;SDS011;69486;59.082;37.928;2023-07-29T03:16:18;2.53;;;0.70;;
80159;SDS011;69486;59.082;37.928;2023-07-29T03:18:44;1.98;;;0.80;;
80159;SDS011;69486;59.082;37.928;2023-07-29T03:21:10;4.53;;;0.70;;
80159;SDS011;69486;59.082;37.928;2023-07-29T03:23:36;1.17;;;0.68;;
80159;SDS011;69486;59.082;37.928;2023-07-29T03:26:02;0.80;;;0.80;;
80159;SDS011;69486;59.082;37.928;2023-07-29T03:31:02;1.20;;;0.70;;
80159;SDS011;69486;59.082;37.928;2023-07-29T03:33:28;1.55;;;0.80;;
80159;SDS011;69486;59.082;37.928;2023-07-29T03:35:54;0.95;;;0.85;;
80159;SDS011;69486;59.082;37.928;2023-07-29T03:38:20;1.20;;;0.75;;
80159;SDS011;69486;59.082;37.928;2023-07-29T03:40:46;0.90;;;0.90;;
80159;SDS011;69486;59.082;37.928;2023-07-29T03:43:12;1.30;;;0.85;;
80159;SDS011;69486;59.082;37.928;2023-07-29T03:45:40;4.20;;;0.80;;
80159;SDS011;69486;59.082;37.928;2023-07-29T03:48:07;2.13;;;0.70;;
80159;SDS011;69486;59.082;37.928;2023-07-29T03:50:33;1.65;;;0.80;;
80159;SDS011;69486;59.082;37.928;2023-07-29T03:53:01;3.80;;;0.80;;
80159;SDS011;69486;59.082;37.928;2023-07-29T03:55:26;0.60;;;0.60;;
80159;SDS011;69486;59.082;37.928;2023-07-29T03:57:52;1.75;;;0.80;;
80159;SDS011;69486;59.082;37.928;2023-07-29T04:00:18;3.70;;;0.80;;
80159;SDS011;69486;59.082;37.928;2023-07-29T04:02:44;2.63;;;0.82;;
80159;SDS011;69486;59.082;37.928;2023-07-29T04:05:11;3.35;;;0.65;;
80159;SDS011;69486;59.082;37.928;2023-07-29T04:07:37;3.78;;;0.93;;
80159;SDS011;69486;59.082;37.928;2023-07-29T04:10:03;2.13;;;0.88;;
80159;SDS011;69486;59.082;37.928;2023-07-29T04:12:30;2.28;;;0.68;;
80159;SDS011;69486;59.082;37.928;2023-07-29T04:14:56;3.65;;;0.80;;
80159;SDS011;69486;59.082;37.928;2023-07-29T04:17:22;2.85;;;0.98;;
80159;SDS011;69486;59.082;37.928;2023-07-29T04:19:47;1.95;;;0.68;;
80159;SDS011;69486;59.082;37.928;2023-07-29T04:22:14;0.80;;;0.65;;
80159;SDS011;69486;59.082;37.928;2023-07-29T04:24:40;1.80;;;0.85;;
80159;SDS011;69486;59.082;37.928;2023-07-29T04:27:05;0.70;;;0.70;;
80159;SDS011;69486;59.082;37.928;2023-07-29T04:29:31;1.48;;;0.70;;
80159;SDS011;69486;59.082;37.928;2023-07-29T04:31:57;1.60;;;1.00;;
80159;SDS011;69486;59.082;37.928;2023-07-29T04:34:23;1.83;;;0.90;;
80159;SDS011;69486;59.082;37.928;2023-07-29T04:36:49;2.15;;;1.02;;
80159;SDS011;69486;59.082;37.928;2023-07-29T04:39:15;0.95;;;0.80;;
80159;SDS011;69486;59.082;37.928;2023-07-29T04:41:41;3.50;;;1.45;;
80159;SDS011;69486;59.082;37.928;2023-07-29T04:44:07;3.42;;;1.13;;
80159;SDS011;69486;59.082;37.928;2023-07-29T04:46:33;4.10;;;1.38;;
80159;SDS011;69486;59.082;37.928;2023-07-29T04:48:59;4.93;;;1.60;;
80159;SDS011;69486;59.082;37.928;2023-07-29T04:51:24;3.10;;;1.40;;
80159;SDS011;69486;59.082;37.928;2023-07-29T04:53:50;4.95;;;1.50;;
80159;SDS011;69486;59.082;37.928;2023-07-29T04:56:18;8.88;;;1.40;;
80159;SDS011;69486;59.082;37.928;2023-07-29T04:58:44;3.50;;;1.48;;
80159;SDS011;69486;59.082;37.928;2023-07-29T05:01:10;5.05;;;1.70;;
80159;SDS011;69486;59.082;37.928;2023-07-29T05:03:36;5.97;;;1.70;;
80159;SDS011;69486;59.082;37.928;2023-07-29T05:06:02;13.23;;;2.25;;
80159;SDS011;69486;59.082;37.928;2023-07-29T05:08:28;4.95;;;2.10;;
80159;SDS011;69486;59.082;37.928;2023-07-29T05:10:54;4.45;;;1.70;;
80159;SDS011;69486;59.082;37.928;2023-07-29T05:13:22;4.18;;;1.42;;
80159;SDS011;69486;59.082;37.928;2023-07-29T05:15:48;5.25;;;2.05;;
80159;SDS011;69486;59.082;37.928;2023-07-29T05:18:17;7.63;;;2.70;;
80159;SDS011;69486;59.082;37.928;2023-07-29T05:20:43;7.38;;;3.00;;
80159;SDS011;69486;59.082;37.928;2023-07-29T05:23:09;8.65;;;2.83;;
80159;SDS011;69486;59.082;37.928;2023-07-29T05:25:35;10.23;;;3.58;;
80159;SDS011;69486;59.082;37.928;2023-07-29T05:28:01;17.67;;;5.45;;
80159;SDS011;69486;59.082;37.928;2023-07-29T05:30:27;20.42;;;5.32;;
80159;SDS011;69486;59.082;37.928;2023-07-29T05:32:56;19.33;;;6.68;;
80159;SDS011;69486;59.082;37.928;2023-07-29T05:35:23;18.60;;;7.82;;
80159;SDS011;69486;59.082;37.928;2023-07-29T05:37:49;24.40;;;6.75;;
80159;SDS011;69486;59.082;37.928;2023-07-29T05:40:14;21.10;;;6.82;;
80159;SDS011;69486;59.082;37.928;2023-07-29T05:42:40;21.02;;;7.43;;
80159;SDS011;69486;59.082;37.928;2023-07-29T05:45:07;17.80;;;6.22;;
80159;SDS011;69486;59.082;37.928;2023-07-29T05:47:33;17.13;;;6.15;;
80159;SDS011;69486;59.082;37.928;2023-07-29T05:49:59;18.42;;;6.20;;
80159;SDS011;69486;59.082;37.928;2023-07-29T05:52:27;24.83;;;7.75;;
80159;SDS011;69486;59.082;37.928;2023-07-29T05:54:53;18.00;;;6.85;;
80159;SDS011;69486;59.082;37.928;2023-07-29T05:57:19;16.13;;;5.95;;
80159;SDS011;69486;59.082;37.928;2023-07-29T05:59:45;17.42;;;5.47;;
80159;SDS011;69486;59.082;37.928;2023-07-29T06:02:10;16.58;;;6.10;;
80159;SDS011;69486;59.082;37.928;2023-07-29T06:04:36;14.38;;;4.63;;
80159;SDS011;69486;59.082;37.928;2023-07-29T06:07:02;12.20;;;4.75;;
80159;SDS011;69486;59.082;37.928;2023-07-29T06:09:28;13.30;;;4.85;;
80159;SDS011;69486;59.082;37.928;2023-07-29T06:11:54;13.40;;;3.75;;
80159;SDS011;69486;59.082;37.928;2023-07-29T06:14:20;11.55;;;4.65;;
80159;SDS011;69486;59.082;37.928;2023-07-29T06:16:46;12.85;;;4.57;;
80159;SDS011;69486;59.082;37.928;2023-07-29T06:19:12;9.65;;;4.32;;
80159;SDS011;69486;59.082;37.928;2023-07-29T06:21:39;15.23;;;4.95;;
80159;SDS011;69486;59.082;37.928;2023-07-29T06:24:05;13.70;;;4.25;;
80159;SDS011;69486;59.082;37.928;2023-07-29T06:26:31;13.73;;;3.85;;
80159;SDS011;69486;59.082;37.928;2023-07-29T06:28:57;10.07;;;3.95;;
80159;SDS011;69486;59.082;37.928;2023-07-29T06:31:22;14.07;;;4.63;;
80159;SDS011;69486;59.082;37.928;2023-07-29T06:33:48;13.15;;;4.15;;
80159;SDS011;69486;59.082;37.928;2023-07-29T06:36:14;11.40;;;4.15;;
80159;SDS011;69486;59.082;37.928;2023-07-29T06:38:40;11.77;;;4.55;;
80159;SDS011;69486;59.082;37.928;2023-07-29T06:41:07;14.70;;;4.82;;
80159;SDS011;69486;59.082;37.928;2023-07-29T06:43:33;13.82;;;4.45;;
80159;SDS011;69486;59.082;37.928;2023-07-29T06:45:59;10.77;;;4.72;;
80159;SDS011;69486;59.082;37.928;2023-07-29T06:48:25;14.73;;;5.68;;
80159;SDS011;69486;59.082;37.928;2023-07-29T06:50:50;15.50;;;5.32;;
80159;SDS011;69486;59.082;37.928;2023-07-29T06:53:17;12.50;;;4.45;;
80159;SDS011;69486;59.082;37.928;2023-07-29T06:55:44;10.73;;;3.47;;
80159;SDS011;69486;59.082;37.928;2023-07-29T06:58:10;8.90;;;2.92;;
80159;SDS011;69486;59.082;37.928;2023-07-29T07:00:36;9.98;;;3.40;;
80159;SDS011;69486;59.082;37.928;2023-07-29T07:03:02;11.68;;;3.83;;
80159;SDS011;69486;59.082;37.928;2023-07-29T07:05:28;15.48;;;4.07;;
80159;SDS011;69486;59.082;37.928;2023-07-29T07:07:53;13.85;;;3.40;;
80159;SDS011;69486;59.082;37.928;2023-07-29T07:10:19;14.25;;;3.38;;
80159;SDS011;69486;59.082;37.928;2023-07-29T07:12:46;9.48;;;2.40;;
80159;SDS011;69486;59.082;37.928;2023-07-29T07:15:12;9.23;;;3.75;;
80159;SDS011;69486;59.082;37.928;2023-07-29T07:17:38;12.23;;;3.22;;
80159;SDS011;69486;59.082;37.928;2023-07-29T07:20:04;10.30;;;2.85;;
80159;SDS011;69486;59.082;37.928;2023-07-29T07:22:30;7.18;;;2.50;;
80159;SDS011;69486;59.082;37.928;2023-07-29T07:24:56;4.25;;;1.70;;
80159;SDS011;69486;59.082;37.928;2023-07-29T07:27:22;4.20;;;1.48;;
80159;SDS011;69486;59.082;37.928;2023-07-29T07:29:48;4.57;;;1.33;;
80159;SDS011;69486;59.082;37.928;2023-07-29T07:32:14;3.05;;;1.23;;
80159;SDS011;69486;59.082;37.928;2023-07-29T07:34:40;4.70;;;1.38;;
80159;SDS011;69486;59.082;37.928;2023-07-29T07:37:05;3.63;;;1.17;;
80159;SDS011;69486;59.082;37.928;2023-07-29T07:39:31;2.65;;;1.02;;
80159;SDS011;69486;59.082;37.928;2023-07-29T07:41:57;2.85;;;1.10;;
80159;SDS011;69486;59.082;37.928;2023-07-29T07:44:23;6.65;;;1.30;;
80159;SDS011;69486;59.082;37.928;2023-07-29T07:46:52;4.28;;;0.82;;
80159;SDS011;69486;59.082;37.928;2023-07-29T07:49:19;3.13;;;1.10;;
80159;SDS011;69486;59.082;37.928;2023-07-29T07:51:45;2.90;;;0.85;;
80159;SDS011;69486;59.082;37.928;2023-07-29T07:54:11;2.38;;;0.65;;
80159;SDS011;69486;59.082;37.928;2023-07-29T07:56:37;2.72;;;1.10;;
80159;SDS011;69486;59.082;37.928;2023-07-29T07:59:03;3.40;;;0.88;;
80159;SDS011;69486;59.082;37.928;2023-07-29T08:01:33;1.20;;;0.65;;
80159;SDS011;69486;59.082;37.928;2023-07-29T08:04:00;1.73;;;0.73;;
80159;SDS011;69486;59.082;37.928;2023-07-29T08:06:26;1.58;;;0.80;;
80159;SDS011;69486;59.082;37.928;2023-07-29T08:08:52;0.80;;;0.80;;
80159;SDS011;69486;59.082;37.928;2023-07-29T08:11:20;3.10;;;0.70;;
80159;SDS011;69486;59.082;37.928;2023-07-29T08:13:46;0.90;;;0.80;;
80159;SDS011;69486;59.082;37.928;2023-07-29T08:16:12;5.63;;;0.65;;
80159;SDS011;69486;59.082;37.928;2023-07-29T08:18:38;3.92;;;0.77;;
80159;SDS011;69486;59.082;37.928;2023-07-29T08:21:05;3.45;;;0.68;;
80159;SDS011;69486;59.082;37.928;2023-07-29T08:23:32;1.35;;;0.52;;
80159;SDS011;69486;59.082;37.928;2023-07-29T08:25:58;1.45;;;0.68;;
80159;SDS011;69486;59.082;37.928;2023-07-29T08:30:56;1.35;;;0.70;;
80159;SDS011;69486;59.082;37.928;2023-07-29T08:33:22;1.95;;;0.70;;
80159;SDS011;69486;59.082;37.928;2023-07-29T08:35:48;0.95;;;0.73;;
80159;SDS011;69486;59.082;37.928;2023-07-29T08:38:14;2.03;;;0.90;;
80159;SDS011;69486;59.082;37.928;2023-07-29T08:41:14;2.47;;;1.00;;
80159;SDS011;69486;59.082;37.928;2023-07-29T08:43:32;2.05;;;1.10;;
80159;SDS011;69486;59.082;37.928;2023-07-29T08:45:59;1.33;;;1.15;;
80159;SDS011;69486;59.082;37.928;2023-07-29T08:48:46;2.03;;;0.70;;
80159;SDS011;69486;59.082;37.928;2023-07-29T08:51:11;0.85;;;0.70;;
80159;SDS011;69486;59.082;37.928;2023-07-29T08:53:37;3.33;;;0.90;;
80159;SDS011;69486;59.082;37.928;2023-07-29T08:56:03;3.90;;;1.10;;
80159;SDS011;69486;59.082;37.928;2023-07-29T08:58:31;3.55;;;0.52;;
80159;SDS011;69486;59.082;37.928;2023-07-29T09:00:57;2.50;;;0.52;;
80159;SDS011;69486;59.082;37.928;2023-07-29T09:03:23;0.40;;;0.40;;
80159;SDS011;69486;59.082;37.928;2023-07-29T09:05:49;3.60;;;0.88;;
80159;SDS011;69486;59.082;37.928;2023-07-29T09:08:16;1.35;;;0.50;;
80159;SDS011;69486;59.082;37.928;2023-07-29T09:10:42;12.27;;;0.57;;
80159;SDS011;69486;59.082;37.928;2023-07-29T09:13:07;1.58;;;0.90;;
80159;SDS011;69486;59.082;37.928;2023-07-29T09:15:35;2.35;;;0.85;;
80159;SDS011;69486;59.082;37.928;2023-07-29T09:18:11;1.80;;;0.60;;
80159;SDS011;69486;59.082;37.928;2023-07-29T09:20:39;3.05;;;0.43;;
80159;SDS011;69486;59.082;37.928;2023-07-29T09:23:07;0.75;;;0.55;;
80159;SDS011;69486;59.082;37.928;2023-07-29T09:25:33;0.40;;;0.40;;
80159;SDS011;69486;59.082;37.928;2023-07-29T09:27:59;1.85;;;0.30;;
80159;SDS011;69486;59.082;37.928;2023-07-29T09:30:26;1.10;;;0.40;;
80159;SDS011;69486;59.082;37.928;2023-07-29T09:32:55;0.77;;;0.40;;
80159;SDS011;69486;59.082;37.928;2023-07-29T09:35:22;0.43;;;0.30;;
80159;SDS011;69486;59.082;37.928;2023-07-29T09:37:48;0.30;;;0.28;;
80159;SDS011;69486;59.082;37.928;2023-07-29T09:40:15;0.98;;;0.60;;
80159;SDS011;69486;59.082;37.928;2023-07-29T09:42:47;1.80;;;0.38;;
80159;SDS011;69486;59.082;37.928;2023-07-29T09:45:18;0.45;;;0.32;;
80159;SDS011;69486;59.082;37.928;2023-07-29T09:47:45;1.05;;;0.43;;
80159;SDS011;69486;59.082;37.928;2023-07-29T09:50:11;0.57;;;0.38;;
80159;SDS011;69486;59.082;37.928;2023-07-29T09:52:38;0.93;;;0.30;;
80159;SDS011;69486;59.082;37.928;2023-07-29T09:55:04;0.95;;;0.50;;
80159;SDS011;69486;59.082;37.928;2023-07-29T09:57:31;1.58;;;0.32;;
80159;SDS011;69486;59.082;37.928;2023-07-29T09:59:58;0.73;;;0.50;;
80159;SDS011;69486;59.082;37.928;2023-07-29T10:02:24;2.00;;;0.57;;
80159;SDS011;69486;59.082;37.928;2023-07-29T10:04:51;1.10;;;0.50;;
80159;SDS011;69486;59.082;37.928;2023-07-29T10:07:20;2.67;;;0.60;;
80159;SDS011;69486;59.082;37.928;2023-07-29T10:09:47;0.95;;;0.50;;
80159;SDS011;69486;59.082;37.928;2023-07-29T10:12:13;0.95;;;0.40;;
80159;SDS011;69486;59.082;37.928;2023-07-29T10:14:39;1.17;;;0.55;;
80159;SDS011;69486;59.082;37.928;2023-07-29T10:17:06;1.33;;;0.50;;
80159;SDS011;69486;59.082;37.928;2023-07-29T10:19:31;1.65;;;0.60;;
80159;SDS011;69486;59.082;37.928;2023-07-29T10:22:01;0.60;;;0.40;;
80159;SDS011;69486;59.082;37.928;2023-07-29T10:24:32;0.80;;;0.57;;
80159;SDS011;69486;59.082;37.928;2023-07-29T10:27:00;0.80;;;0.60;;
80159;SDS011;69486;59.082;37.928;2023-07-29T10:29:32;0.57;;;0.43;;
80159;SDS011;69486;59.082;37.928;2023-07-29T10:32:06;0.82;;;0.60;;
80159;SDS011;69486;59.082;37.928;2023-07-29T10:34:34;0.70;;;0.50;;
80159;SDS011;69486;59.082;37.928;2023-07-29T10:37:01;1.15;;;0.65;;
80159;SDS011;69486;59.082;37.928;2023-07-29T10:39:27;0.65;;;0.60;;
80159;SDS011;69486;59.082;37.928;2023-07-29T10:47:13;1.27;;;0.60;;
80159;SDS011;69486;59.082;37.928;2023-07-29T10:49:42;1.20;;;0.43;;
80159;SDS011;69486;59.082;37.928;2023-07-29T10:52:08;0.90;;;0.63;;
80159;SDS011;69486;59.082;37.928;2023-07-29T10:54:41;1.95;;;0.50;;
80159;SDS011;69486;59.082;37.928;2023-07-29T10:57:07;3.55;;;0.73;;
80159;SDS011;69486;59.082;37.928;2023-07-29T10:59:33;0.75;;;0.60;;
80159;SDS011;69486;59.082;37.928;2023-07-29T11:02:02;1.20;;;0.80;;
80159;SDS011;69486;59.082;37.928;2023-07-29T11:04:30;2.95;;;0.80;;
80159;SDS011;69486;59.082;37.928;2023-07-29T11:14:52;1.58;;;0.70;;
80159;SDS011;69486;59.082;37.928;2023-07-29T11:17:18;1.17;;;0.57;;
80159;SDS011;69486;59.082;37.928;2023-07-29T11:19:44;1.23;;;0.70;;
80159;SDS011;69486;59.082;37.928;2023-07-29T11:22:11;1.38;;;0.70;;
80159;SDS011;69486;59.082;37.928;2023-07-29T11:24:37;2.95;;;0.70;;
80159;SDS011;69486;59.082;37.928;2023-07-29T11:27:03;0.80;;;0.60;;
80159;SDS011;69486;59.082;37.928;2023-07-29T11:29:29;0.85;;;0.40;;
80159;SDS011;69486;59.082;37.928;2023-07-29T11:31:55;0.70;;;0.40;;
80159;SDS011;69486;59.082;37.928;2023-07-29T11:34:34;1.05;;;0.30;;
80159;SDS011;69486;59.082;37.928;2023-07-29T11:37:00;1.33;;;0.60;;
80159;SDS011;69486;59.082;37.928;2023-07-29T11:39:26;1.25;;;0.45;;
80159;SDS011;69486;59.082;37.928;2023-07-29T11:41:52;0.40;;;0.40;;
80159;SDS011;69486;59.082;37.928;2023-07-29T11:44:17;0.70;;;0.50;;
80159;SDS011;69486;59.082;37.928;2023-07-29T11:46:43;1.25;;;0.40;;
80159;SDS011;69486;59.082;37.928;2023-07-29T11:49:09;0.95;;;0.47;;
80159;SDS011;69486;59.082;37.928;2023-07-29T11:51:38;0.55;;;0.43;;
80159;SDS011;69486;59.082;37.928;2023-07-29T11:54:06;0.70;;;0.40;;
80159;SDS011;69486;59.082;37.928;2023-07-29T11:56:32;0.60;;;0.40;;
80159;SDS011;69486;59.082;37.928;2023-07-29T11:58:58;0.57;;;0.40;;
80159;SDS011;69486;59.082;37.928;2023-07-29T12:01:25;0.55;;;0.30;;
80159;SDS011;69486;59.082;37.928;2023-07-29T12:03:51;6.53;;;4.18;;
80159;SDS011;69486;59.082;37.928;2023-07-29T12:06:17;2.03;;;1.33;;
80159;SDS011;69486;59.082;37.928;2023-07-29T12:08:43;1.60;;;0.45;;
80159;SDS011;69486;59.082;37.928;2023-07-29T12:11:09;1.08;;;0.50;;
80159;SDS011;69486;59.082;37.928;2023-07-29T12:13:38;0.90;;;0.40;;
80159;SDS011;69486;59.082;37.928;2023-07-29T12:16:04;1.10;;;0.60;;
80159;SDS011;69486;59.082;37.928;2023-07-29T12:18:30;1.02;;;0.50;;
80159;SDS011;69486;59.082;37.928;2023-07-29T12:20:56;0.98;;;0.50;;
80159;SDS011;69486;59.082;37.928;2023-07-29T12:23:25;0.93;;;0.40;;
80159;SDS011;69486;59.082;37.928;2023-07-29T12:25:56;0.70;;;0.50;;
80159;SDS011;69486;59.082;37.928;2023-07-29T12:28:23;1.85;;;0.60;;
80159;SDS011;69486;59.082;37.928;2023-07-29T12:30:53;1.42;;;0.60;;
80159;SDS011;69486;59.082;37.928;2023-07-29T12:33:32;0.95;;;0.68;;
80159;SDS011;69486;59.082;37.928;2023-07-29T12:35:59;3.95;;;1.20;;
80159;SDS011;69486;59.082;37.928;2023-07-29T12:38:28;0.60;;;0.50;;
80159;SDS011;69486;59.082;37.928;2023-07-29T12:40:54;1.38;;;0.88;;
80159;SDS011;69486;59.082;37.928;2023-07-29T12:43:21;2.20;;;1.17;;
80159;SDS011;69486;59.082;37.928;2023-07-29T12:45:50;1.83;;;1.15;;
80159;SDS011;69486;59.082;37.928;2023-07-29T12:48:16;0.93;;;0.70;;
80159;SDS011;69486;59.082;37.928;2023-07-29T12:50:42;0.73;;;0.50;;
80159;SDS011;69486;59.082;37.928;2023-07-29T12:53:08;1.02;;;0.70;;
80159;SDS011;69486;59.082;37.928;2023-07-29T12:55:37;0.88;;;0.60;;
80159;SDS011;69486;59.082;37.928;2023-07-29T12:58:03;0.50;;;0.40;;
80159;SDS011;69486;59.082;37.928;2023-07-29T13:00:29;0.30;;;0.30;;
80159;SDS011;69486;59.082;37.928;2023-07-29T13:02:55;0.43;;;0.32;;
80159;SDS011;69486;59.082;37.928;2023-07-29T13:05:21;0.73;;;0.50;;
80159;SDS011;69486;59.082;37.928;2023-07-29T13:07:47;26.38;;;17.13;;
80159;SDS011;69486;59.082;37.928;2023-07-29T13:10:13;2.80;;;2.25;;
80159;SDS011;69486;59.082;37.928;2023-07-29T13:12:39;0.50;;;0.50;;
80159;SDS011;69486;59.082;37.928;2023-07-29T13:15:05;0.68;;;0.68;;
80159;SDS011;69486;59.082;37.928;2023-07-29T13:17:32;0.95;;;0.77;;
80159;SDS011;69486;59.082;37.928;2023-07-29T13:19:58;1.52;;;0.98;;
80159;SDS011;69486;59.082;37.928;2023-07-29T13:22:24;0.80;;;0.50;;
80159;SDS011;69486;59.082;37.928;2023-07-29T13:24:50;0.60;;;0.52;;
80159;SDS011;69486;59.082;37.928;2023-07-29T13:27:16;0.20;;;0.20;;
80159;SDS011;69486;59.082;37.928;2023-07-29T13:29:42;1.70;;;0.50;;
80159;SDS011;69486;59.082;37.928;2023-07-29T13:32:09;0.60;;;0.40;;
80159;SDS011;69486;59.082;37.928;2023-07-29T13:34:35;0.55;;;0.40;;
80159;SDS011;69486;59.082;37.928;2023-07-29T13:37:01;0.50;;;0.43;;
80159;SDS011;69486;59.082;37.928;2023-07-29T13:39:27;2.83;;;0.40;;
80159;SDS011;69486;59.082;37.928;2023-07-29T13:41:53;0.90;;;0.50;;
80159;SDS011;69486;59.082;37.928;2023-07-29T13:44:20;0.98;;;0.45;;
80159;SDS011;69486;59.082;37.928;2023-07-29T13:46:45;0.40;;;0.38;;
80159;SDS011;69486;59.082;37.928;2023-07-29T13:49:11;0.50;;;0.43;;
80159;SDS011;69486;59.082;37.928;2023-07-29T13:51:38;0.52;;;0.50;;
80159;SDS011;69486;59.082;37.928;2023-07-29T13:54:04;0.75;;;0.50;;
80159;SDS011;69486;59.082;37.928;2023-07-29T13:56:30;0.98;;;0.50;;
80159;SDS011;69486;59.082;37.928;2023-07-29T13:58:56;4.75;;;3.15;;
80159;SDS011;69486;59.082;37.928;2023-07-29T14:01:21;3.75;;;2.72;;
80159;SDS011;69486;59.082;37.928;2023-07-29T14:03:47;2.25;;;1.38;;
80159;SDS011;69486;59.082;37.928;2023-07-29T14:06:13;1.02;;;0.80;;
80159;SDS011;69486;59.082;37.928;2023-07-29T14:08:39;1.23;;;0.95;;
80159;SDS011;69486;59.082;37.928;2023-07-29T14:11:07;3.22;;;2.05;;
80159;SDS011;69486;59.082;37.928;2023-07-29T14:13:33;2.75;;;1.05;;
80159;SDS011;69486;59.082;37.928;2023-07-29T14:16:02;2.08;;;1.73;;
80159;SDS011;69486;59.082;37.928;2023-07-29T14:18:28;2.30;;;1.33;;
80159;SDS011;69486;59.082;37.928;2023-07-29T14:20:54;2.45;;;1.60;;
80159;SDS011;69486;59.082;37.928;2023-07-29T14:23:20;1.85;;;0.93;;
80159;SDS011;69486;59.082;37.928;2023-07-29T14:25:46;0.75;;;0.52;;
80159;SDS011;69486;59.082;37.928;2023-07-29T14:28:13;2.85;;;0.63;;
80159;SDS011;69486;59.082;37.928;2023-07-29T14:30:39;1.55;;;0.90;;
80159;SDS011;69486;59.082;37.928;2023-07-29T14:33:06;1.40;;;0.80;;
80159;SDS011;69486;59.082;37.928;2023-07-29T14:35:32;2.13;;;1.23;;
80159;SDS011;69486;59.082;37.928;2023-07-29T14:37:58;0.70;;;0.52;;
80159;SDS011;69486;59.082;37.928;2023-07-29T14:40:24;1.77;;;0.65;;
80159;SDS011;69486;59.082;37.928;2023-07-29T14:42:50;0.75;;;0.60;;
80159;SDS011;69486;59.082;37.928;2023-07-29T14:45:16;0.60;;;0.40;;
80159;SDS011;69486;59.082;37.928;2023-07-29T14:47:42;0.40;;;0.40;;
80159;SDS011;69486;59.082;37.928;2023-07-29T14:50:08;1.50;;;0.70;;